METAR Data
IDs: Format: Raw Decoded Include TAF

Data at: 2127 UTC 18 Sep 2018

KAMA 182053Z 19020G26KT 10SM CLR 31/14 A2997 RMK AO2 PK WND 19026/2051 SLP092 T03110144 56025
KAMA 181953Z 18018G24KT 10SM CLR 31/15 A3000 RMK AO2 SLP099 T03110150
KAMA 181853Z 20016G24KT 10SM CLR 31/16 A3003 RMK AO2 SLP109 T03060156
KAMA 181753Z 22015G20KT 10SM CLR 29/16 A3005 RMK AO2 SLP120 T02890161 10289 20172 58013
KAMA 181653Z 21016KT 10SM CLR 27/17 A3008 RMK AO2 SLP131 T02720167
KAMA 181553Z 18016KT 10SM CLR 25/17 A3009 RMK AO2 SLP138 T02500172
KAMA 181453Z 19014KT 10SM FEW013 22/17 A3009 RMK AO2 SLP140 T02220172 51007
KAMA 181353Z 19011KT 10SM CLR 20/17 A3009 RMK AO2 SLP139 T02000172
KAMA 181253Z 18008KT 10SM CLR 18/16 A3008 RMK AO2 SLP135 T01830161
KAMA 181153Z 14005KT 10SM CLR 17/16 A3007 RMK AO2 SLP131 T01720156 10222 20172 53007
KAMA 181053Z 19008KT 10SM CLR 19/17 A3006 RMK AO2 SLP122 T01890167
KAMA 180953Z AUTO 20011KT 10SM CLR 19/17 A3005 RMK AO2 SLP116 T01940167
KAMA 180853Z AUTO 21011KT 10SM CLR 20/17 A3005 RMK AO2 SLP117 T02000167 58004
KAMA 180753Z AUTO 21011KT 10SM CLR 21/17 A3006 RMK AO2 SLP120 T02060167
KAMA 180653Z AUTO 21013KT 10SM CLR 21/17 A3006 RMK AO2 SLP122 T02110167
KAMA 180553Z AUTO 21012KT 10SM CLR 22/16 A3006 RMK AO2 SLP122 T02220161 10300 20222 403330167 51004
KAMA 180453Z AUTO 20011KT 10SM CLR 23/16 A3006 RMK AO2 SLP121 T02280161
KAMA 180353Z 18010KT 10SM CLR 23/14 A3006 RMK AO2 SLP123 T02280144
KAMA 180253Z 18011KT 10SM CLR 24/15 A3005 RMK AO2 SLP120 T02440150 53018
KAMA 180153Z 18012KT 10SM CLR 26/15 A3002 RMK AO2 SLP115 T02560150
KAMA 180053Z 19014KT 10SM CLR 28/14 A3000 RMK AO2 SLP109 T02780144
KAMA 172353Z 17018G22KT 10SM CLR 30/14 A2999 RMK AO2 SLP102 T03000139 10333 20300 56006
KAMA 172253Z 19013KT 10SM CLR 32/13 A2999 RMK AO2 SLP101 T03170128
KAMA 172153Z 20015KT 160V230 10SM FEW065 32/14 A2999 RMK AO2 PK WND 15026/2134 SLP101 T03220139
KAMA 172053Z 22013G21KT 10SM FEW060 33/14 A3001 RMK AO2 SLP106 T03330139 56020
KAMA 171953Z 19014G24KT 10SM CLR 32/14 A3003 RMK AO2 SLP113 T03170144
KAMA 171853Z 20012G19KT 10SM CLR 31/14 A3005 RMK AO2 SLP119 T03110139
KAMA 171753Z 19016G20KT 10SM CLR 30/14 A3008 RMK AO2 SLP128 T03000139 10300 20167 58006
KAMA 171653Z 19013G21KT 10SM CLR 29/14 A3009 RMK AO2 PK WND 20027/1624 SLP136 T02890139
KAMA 171553Z 21013G18KT 10SM CLR 27/15 A3010 RMK AO2 SLP139 T02720150
KAMA 171453Z 20013KT 10SM CLR 25/17 A3009 RMK AO2 SLP138 T02500167 51008
KAMA 171353Z 20011KT 10SM CLR 21/16 A3009 RMK AO2 SLP138 T02110161
KAMA 171253Z 20008KT 10SM CLR 17/15 A3008 RMK AO2 SLP137 T01720150
KAMA 171153Z 21009KT 10SM CLR 17/15 A3007 RMK AO2 SLP132 T01720150 10211 20172 55001
KAMA 171053Z 20008KT 10SM CLR 17/14 A3006 RMK AO2 SLP129 T01720144 $
KAMA 170953Z AUTO 19008KT 10SM CLR 18/14 A3007 RMK AO2 SLP129 T01780144 $